Time;durP1;ratioP1;P1;durP2;ratioP2;P2;SDS_P1;SDS_P2;PMS_P1;PMS_P2;Temp;Humidity;BMP_temperature;BMP_pressure;BME280_temperature;BME280_humidity;BME280_pressure;Samples;Min_cycle;Max_cycle;Signal;HPM_P1;HPM_P2
2022/09/16 00:00:50;;;;;;;6.60;5.83;;;13.10;99.90;;;;;;5034179;28;20178;-74
2022/09/16 00:03:16;;;;;;;9.97;6.40;;;13.20;99.90;;;;;;5049312;28;20549;-74
2022/09/16 00:05:43;;;;;;;6.63;5.80;;;13.20;99.90;;;;;;5034096;28;20535;-76
2022/09/16 00:08:09;;;;;;;5.87;5.40;;;13.30;99.90;;;;;;5033673;28;20555;-74
2022/09/16 00:10:35;;;;;;;5.90;5.40;;;13.40;99.90;;;;;;5033360;28;20405;-74
2022/09/16 00:13:01;;;;;;;7.07;5.53;;;13.40;99.90;;;;;;5033814;28;20487;-74
2022/09/16 00:15:26;;;;;;;5.97;5.30;;;13.30;99.90;;;;;;5033743;28;20412;-74
2022/09/16 00:17:52;;;;;;;9.13;6.17;;;13.40;99.90;;;;;;5033664;28;20174;-74
2022/09/16 00:20:17;;;;;;;7.90;6.30;;;13.40;99.90;;;;;;5033637;28;20182;-74
2022/09/16 00:22:43;;;;;;;7.33;5.60;;;13.50;99.90;;;;;;5033832;28;20194;-74
2022/09/16 00:25:09;;;;;;;13.27;6.23;;;13.50;99.90;;;;;;5033536;28;20231;-74
2022/09/16 00:27:34;;;;;;;12.40;7.33;;;13.50;99.90;;;;;;5033640;28;20174;-74
2022/09/16 00:30:00;;;;;;;7.07;6.40;;;13.50;99.90;;;;;;5033364;28;20211;-75
2022/09/16 00:32:25;;;;;;;10.80;7.00;;;13.60;99.90;;;;;;5033437;28;20205;-74
2022/09/16 00:34:51;;;;;;;10.07;6.67;;;13.50;99.90;;;;;;5033667;28;20166;-73
2022/09/16 00:37:17;;;;;;;12.83;5.30;;;13.50;99.90;;;;;;5033493;28;20209;-74
2022/09/16 00:39:42;;;;;;;17.83;6.87;;;13.40;99.90;;;;;;5033428;28;20662;-74
2022/09/16 00:42:11;;;;;;;7.70;6.70;;;13.40;99.90;;;;;;5033386;28;20701;-74
2022/09/16 00:44:57;;;;;;;8.17;6.40;;;13.40;99.90;;;;;;5032720;28;20174;-74
2022/09/16 00:47:40;;;;;;;11.80;6.30;;;13.40;99.90;;;;;;5033190;28;20966;-74
2022/09/16 00:50:10;;;;;;;8.23;6.20;;;13.40;99.90;;;;;;5033239;28;20417;-74
2022/09/16 00:52:37;;;;;;;6.90;5.63;;;13.30;99.90;;;;;;5033391;28;20948;-74
2022/09/16 00:55:07;;;;;;;7.63;6.80;;;13.40;99.90;;;;;;5033170;28;20401;-74
2022/09/16 00:57:33;;;;;;;6.07;5.50;;;13.40;99.90;;;;;;5033341;28;20405;-74
2022/09/16 01:00:00;;;;;;;9.83;5.90;;;13.40;99.90;;;;;;5032916;28;20423;-74
2022/09/16 02:33:07;;;;;;;6.37;5.77;;;12.90;99.90;;;;;;5058602;22;20474;-72
2022/09/16 02:35:35;;;;;;;10.47;6.57;;;12.90;99.90;;;;;;5016851;28;20789;-72
2022/09/16 02:38:23;;;;;;;13.73;7.37;;;12.90;99.90;;;;;;5018358;28;20412;-73
2022/09/16 02:40:56;;;;;;;12.00;6.10;;;12.80;99.90;;;;;;5018358;28;20409;-71
2022/09/16 02:43:22;;;;;;;8.40;6.47;;;12.80;99.90;;;;;;5018428;28;20903;-72
2022/09/16 02:46:07;;;;;;;8.97;6.93;;;12.80;99.90;;;;;;5018459;28;20500;-73
2022/09/16 02:48:41;;;;;;;15.53;6.13;;;12.70;99.90;;;;;;5018294;28;20465;-72
2022/09/16 02:51:26;;;;;;;12.23;5.90;;;12.70;99.90;;;;;;5018288;28;20440;-72
2022/09/16 02:54:01;;;;;;;10.03;5.60;;;12.70;99.90;;;;;;5018761;28;20963;-71
2022/09/16 02:56:31;;;;;;;7.50;5.53;;;12.60;99.90;;;;;;5018412;28;20437;-72
2022/09/16 02:58:57;;;;;;;8.20;5.83;;;12.60;99.90;;;;;;5018041;28;20787;-72
2022/09/16 03:01:24;;;;;;;7.00;5.97;;;12.60;99.90;;;;;;5018196;28;20956;-72
2022/09/16 03:03:54;;;;;;;10.90;6.30;;;12.50;99.90;;;;;;5018482;28;20504;-73
2022/09/16 03:06:24;;;;;;;8.97;6.10;;;12.50;99.90;;;;;;5018179;28;20469;-72
2022/09/16 03:08:52;;;;;;;8.43;5.90;;;12.50;99.90;;;;;;5018031;28;20453;-72
2022/09/16 03:11:47;;;;;;;6.20;5.60;;;12.40;99.90;;;;;;5017852;28;20524;-72
2022/09/16 03:15:01;;;;;;;7.53;6.43;;;12.40;99.90;;;;;;5018112;28;20771;-72
2022/09/16 03:17:57;;;;;;;10.83;4.73;;;12.40;99.90;;;;;;5009131;28;20421;-72
2022/09/16 03:20:40;;;;;;;7.80;5.17;;;12.40;99.90;;;;;;5018006;28;20956;-74
2022/09/16 03:23:46;;;;;;;6.93;6.23;;;12.40;99.90;;;;;;5016913;28;20409;-72
2022/09/16 03:26:33;;;;;;;7.37;5.40;;;12.40;99.90;;;;;;5018062;28;20505;-72
2022/09/16 03:29:24;;;;;;;7.40;5.23;;;12.40;99.90;;;;;;5017787;28;20818;-74
2022/09/16 03:32:01;;;;;;;5.93;5.10;;;12.50;99.90;;;;;;5017982;28;20452;-72
2022/09/16 03:34:46;;;;;;;6.40;5.47;;;12.50;99.90;;;;;;5016703;28;20452;-72
2022/09/16 03:37:16;;;;;;;6.43;5.20;;;12.50;99.90;;;;;;5017804;28;20405;-72
2022/09/16 03:39:46;;;;;;;9.00;5.33;;;12.60;99.90;;;;;;5018162;28;20429;-72
2022/09/16 03:42:12;;;;;;;10.37;5.10;;;12.60;99.90;;;;;;5018662;28;20433;-72
2022/09/16 03:44:39;;;;;;;8.33;5.23;;;12.60;99.90;;;;;;5015453;28;20981;-72
2022/09/16 03:47:06;;;;;;;6.73;5.00;;;12.60;99.90;;;;;;5014587;28;20605;-72
2022/09/16 03:49:32;;;;;;;8.20;5.30;;;12.60;99.90;;;;;;5014506;28;20488;-72
2022/09/16 03:51:58;;;;;;;8.53;4.50;;;12.60;99.90;;;;;;5014451;28;20473;-71
2022/09/16 03:54:24;;;;;;;8.80;4.97;;;12.60;99.90;;;;;;5014451;28;20174;-72
2022/09/16 03:56:49;;;;;;;7.30;5.10;;;12.70;99.90;;;;;;5014420;28;20417;-74
2022/09/16 03:59:15;;;;;;;4.70;4.33;;;12.70;99.90;;;;;;5014371;28;20278;-72
2022/09/16 04:01:41;;;;;;;6.20;4.57;;;12.80;99.90;;;;;;5014436;28;20214;-68
2022/09/16 04:04:07;;;;;;;5.00;4.47;;;12.80;99.90;;;;;;5014451;28;20525;-71
2022/09/16 04:06:32;;;;;;;5.00;4.37;;;12.80;99.90;;;;;;5014495;28;20189;-72
2022/09/16 04:08:59;;;;;;;8.43;4.90;;;12.80;99.90;;;;;;5014076;28;20261;-72
2022/09/16 04:11:25;;;;;;;6.10;5.20;;;12.80;99.90;;;;;;5014286;28;20615;-72
2022/09/16 04:13:50;;;;;;;4.90;4.50;;;12.80;99.90;;;;;;5014127;28;20410;-72
2022/09/16 04:16:20;;;;;;;4.27;3.87;;;12.80;99.90;;;;;;5014440;28;20183;-72
2022/09/16 04:18:46;;;;;;;8.90;4.37;;;12.80;99.90;;;;;;5014115;28;20178;-72
2022/09/16 04:21:12;;;;;;;4.63;4.23;;;12.80;99.90;;;;;;5013836;28;20816;-72
2022/09/16 04:23:37;;;;;;;5.90;5.10;;;12.80;99.90;;;;;;5014167;28;20412;-72
2022/09/16 04:26:03;;;;;;;5.23;4.73;;;12.80;99.90;;;;;;5013997;28;20181;-72
2022/09/16 04:28:30;;;;;;;6.03;4.93;;;12.90;99.90;;;;;;5013765;28;20206;-71
2022/09/16 04:31:04;;;;;;;8.00;5.10;;;12.80;99.90;;;;;;5013790;28;20851;-71
2022/09/16 04:33:32;;;;;;;4.07;3.70;;;12.90;99.90;;;;;;5014090;28;20414;-72
2022/09/16 04:36:12;;;;;;;8.83;4.47;;;12.80;99.90;;;;;;5013827;28;20411;-72
2022/09/16 04:38:39;;;;;;;11.33;4.53;;;12.90;99.90;;;;;;5013698;28;20472;-72
2022/09/16 04:41:07;;;;;;;5.37;4.43;;;12.90;99.90;;;;;;5013447;28;20440;-70
2022/09/16 04:43:33;;;;;;;9.20;3.70;;;12.90;99.90;;;;;;5013996;28;20418;-70
2022/09/16 04:45:59;;;;;;;8.97;4.53;;;12.90;99.90;;;;;;5013717;28;20417;-70
2022/09/16 04:48:25;;;;;;;6.20;4.07;;;12.90;99.90;;;;;;5013392;28;20553;-70
2022/09/16 04:50:53;;;;;;;7.90;4.10;;;12.90;99.90;;;;;;5012494;28;20202;-70
2022/09/16 04:53:20;;;;;;;6.40;4.50;;;13.00;99.90;;;;;;5013406;28;20250;-71
2022/09/16 04:55:47;;;;;;;5.40;4.50;;;13.00;99.90;;;;;;5013207;28;20778;-72
2022/09/16 04:58:12;;;;;;;6.40;4.27;;;13.00;99.90;;;;;;5013366;28;20417;-72
2022/09/16 05:00:38;;;;;;;8.20;4.70;;;13.00;99.90;;;;;;5013529;28;20418;-72
2022/09/16 05:03:03;;;;;;;9.17;5.00;;;13.00;99.90;;;;;;5013354;28;20228;-72
2022/09/16 05:05:29;;;;;;;4.50;4.10;;;13.00;99.90;;;;;;5013376;28;20261;-72
2022/09/16 05:07:55;;;;;;;7.10;4.67;;;13.00;99.90;;;;;;5013425;28;20183;-71
2022/09/16 05:10:20;;;;;;;8.13;4.77;;;13.00;99.90;;;;;;5012927;28;20162;-71
2022/09/16 05:12:52;;;;;;;7.13;4.53;;;13.00;99.90;;;;;;5013237;28;20729;-72
2022/09/16 05:15:18;;;;;;;4.87;4.30;;;13.00;99.90;;;;;;5013178;28;20178;-72
2022/09/16 05:17:44;;;;;;;6.00;4.50;;;13.00;99.90;;;;;;5013052;28;20413;-70
2022/09/16 05:20:10;;;;;;;6.30;4.70;;;13.00;99.90;;;;;;5012838;28;20816;-72
2022/09/16 05:22:35;;;;;;;7.00;5.73;;;13.00;99.90;;;;;;5012955;28;20433;-72
2022/09/16 05:25:02;;;;;;;7.07;5.23;;;13.10;99.90;;;;;;5012918;28;20241;-72
2022/09/16 05:27:31;;;;;;;11.57;5.10;;;13.10;99.90;;;;;;5012991;28;20172;-72
2022/09/16 05:29:57;;;;;;;7.50;5.40;;;13.10;99.90;;;;;;5012544;28;20519;-74
2022/09/16 05:32:23;;;;;;;9.53;4.60;;;13.10;99.90;;;;;;5012573;28;20453;-74
2022/09/16 05:34:49;;;;;;;5.33;4.83;;;13.10;99.90;;;;;;5012876;28;20170;-74
2022/09/16 05:37:17;;;;;;;5.63;4.30;;;13.10;99.90;;;;;;5012980;28;20163;-74
2022/09/16 05:39:43;;;;;;;5.33;4.60;;;13.10;99.90;;;;;;5012855;28;20487;-73
2022/09/16 05:42:09;;;;;;;14.37;4.93;;;13.10;99.90;;;;;;5013451;28;20529;-74
2022/09/16 05:44:34;;;;;;;5.73;4.80;;;13.10;99.90;;;;;;5012852;28;20254;-74
2022/09/16 05:47:00;;;;;;;5.70;4.93;;;13.20;99.90;;;;;;5012716;28;20317;-74
2022/09/16 05:49:25;;;;;;;6.77;6.00;;;13.10;99.90;;;;;;5012147;28;20341;-74
2022/09/16 05:51:52;;;;;;;4.50;3.90;;;13.10;99.90;;;;;;5012264;28;20201;-74
2022/09/16 05:54:18;;;;;;;9.27;5.30;;;13.20;99.90;;;;;;5012209;28;20201;-74
2022/09/16 05:56:44;;;;;;;7.10;5.00;;;13.10;99.90;;;;;;5012252;28;20432;-74
2022/09/16 05:59:11;;;;;;;7.50;4.70;;;13.20;99.90;;;;;;5012085;28;20434;-74
2022/09/16 06:01:38;;;;;;;9.83;5.23;;;13.10;99.90;;;;;;5011953;28;20453;-74
2022/09/16 06:04:05;;;;;;;6.30;4.47;;;13.10;99.90;;;;;;5012042;28;20421;-74
2022/09/16 06:06:42;;;;;;;5.70;4.70;;;13.10;99.90;;;;;;5011779;28;20418;-74
2022/09/16 06:09:10;;;;;;;9.17;4.27;;;13.20;99.90;;;;;;5011602;28;20457;-74
2022/09/16 06:11:43;;;;;;;6.00;4.70;;;13.20;99.90;;;;;;5011883;28;20460;-74
2022/09/16 06:14:10;;;;;;;5.53;4.17;;;13.20;99.90;;;;;;5011988;28;20531;-74
2022/09/16 06:16:36;;;;;;;8.30;4.33;;;13.10;99.90;;;;;;5012161;28;20459;-74
2022/09/16 06:19:11;;;;;;;6.43;4.03;;;13.20;99.90;;;;;;5011583;28;20496;-73
2022/09/16 06:21:37;;;;;;;9.33;5.07;;;13.20;99.90;;;;;;5012023;28;20876;-72
2022/09/16 06:24:07;;;;;;;5.43;4.37;;;13.20;99.90;;;;;;5011883;28;20493;-72
2022/09/16 06:26:34;;;;;;;7.83;4.97;;;13.20;99.90;;;;;;5011993;28;20413;-72
2022/09/16 06:28:59;;;;;;;9.70;4.70;;;13.20;99.90;;;;;;5011710;28;21033;-72
2022/09/16 06:31:27;;;;;;;5.07;4.13;;;13.20;99.90;;;;;;5011673;28;20547;-72
2022/09/16 06:33:53;;;;;;;5.50;4.93;;;13.20;99.90;;;;;;5011875;28;20200;-72
2022/09/16 06:36:27;;;;;;;9.23;4.97;;;13.20;99.90;;;;;;5010544;28;20531;-72
2022/09/16 06:38:53;;;;;;;10.77;4.77;;;13.20;99.90;;;;;;5010468;28;20422;-72
2022/09/16 06:41:20;;;;;;;7.17;4.90;;;13.20;99.90;;;;;;5011776;28;20429;-72
2022/09/16 06:43:47;;;;;;;5.30;4.80;;;13.20;99.90;;;;;;5011821;28;20190;-72
2022/09/16 06:46:19;;;;;;;7.13;5.27;;;13.20;99.90;;;;;;5011665;28;20509;-72
2022/09/16 06:48:50;;;;;;;5.53;5.00;;;13.20;99.90;;;;;;5011556;28;20493;-72
2022/09/16 06:51:18;;;;;;;5.60;4.67;;;13.20;99.90;;;;;;5011329;28;20467;-72
2022/09/16 06:53:45;;;;;;;6.67;5.67;;;13.20;99.90;;;;;;5011802;28;21060;-72
2022/09/16 06:56:13;;;;;;;6.80;5.10;;;13.20;99.90;;;;;;5011449;28;20445;-72
2022/09/16 06:58:41;;;;;;;10.00;5.80;;;13.20;99.90;;;;;;5011378;28;20996;-72
2022/09/16 07:01:08;;;;;;;5.60;5.07;;;13.20;99.90;;;;;;5011172;28;20429;-72
2022/09/16 07:03:39;;;;;;;9.93;4.30;;;13.20;99.90;;;;;;5011609;28;20418;-72
2022/09/16 07:06:05;;;;;;;7.60;5.60;;;13.20;99.90;;;;;;5011351;28;20440;-73
2022/09/16 07:08:32;;;;;;;6.97;4.30;;;13.30;99.90;;;;;;5011264;28;20552;-73
2022/09/16 07:11:09;;;;;;;4.60;3.97;;;13.20;99.90;;;;;;5011215;28;20436;-72
2022/09/16 07:13:35;;;;;;;8.83;4.50;;;13.10;99.90;;;;;;5011545;28;20413;-72
2022/09/16 07:16:03;;;;;;;4.20;3.90;;;13.00;99.90;;;;;;5011383;28;20425;-72
2022/09/16 07:18:29;;;;;;;7.07;4.23;;;13.00;99.90;;;;;;5011305;28;20187;-73
2022/09/16 07:21:03;;;;;;;5.43;4.57;;;13.00;99.90;;;;;;5014436;28;20432;-73
2022/09/16 07:23:34;;;;;;;7.37;4.90;;;13.00;99.90;;;;;;5015114;28;20492;-72
2022/09/16 07:26:11;;;;;;;6.33;4.83;;;13.00;99.90;;;;;;5014940;28;20930;-72
2022/09/16 07:28:38;;;;;;;10.40;4.20;;;12.90;99.90;;;;;;5014879;28;20452;-72
2022/09/16 07:31:16;;;;;;;4.93;4.03;;;12.80;99.90;;;;;;5014735;28;21012;-73
2022/09/16 07:33:44;;;;;;;13.63;4.83;;;12.70;99.90;;;;;;5015089;28;20405;-72
2022/09/16 07:36:12;;;;;;;5.67;5.03;;;12.80;99.90;;;;;;5014625;28;20485;-73
2022/09/16 07:38:38;;;;;;;10.17;5.20;;;12.90;99.90;;;;;;5014723;28;20432;-73
2022/09/16 07:41:10;;;;;;;8.80;4.37;;;12.80;99.90;;;;;;5014430;28;21043;-72
2022/09/16 07:43:36;;;;;;;8.90;5.50;;;12.90;99.90;;;;;;5016045;28;20406;-72
2022/09/16 07:46:02;;;;;;;9.23;5.20;;;13.00;99.90;;;;;;5015767;28;20417;-73
2022/09/16 07:48:29;;;;;;;7.20;4.93;;;13.00;99.90;;;;;;5015583;28;20480;-72
2022/09/16 07:51:00;;;;;;;7.93;5.37;;;13.00;99.90;;;;;;5014580;28;20426;-72
2022/09/16 07:53:28;;;;;;;5.90;5.30;;;13.00;99.90;;;;;;5014186;28;20507;-72
2022/09/16 07:55:53;;;;;;;9.10;6.03;;;13.00;99.90;;;;;;5013044;28;20934;-72
2022/09/16 07:58:20;;;;;;;9.00;5.40;;;13.00;99.90;;;;;;5014112;28;20417;-72
2022/09/16 08:00:47;;;;;;;6.87;4.90;;;13.00;99.90;;;;;;5014242;28;20188;-73
2022/09/16 08:03:13;;;;;;;5.90;5.30;;;12.90;99.90;;;;;;5014285;28;20409;-72
2022/09/16 08:05:38;;;;;;;9.37;5.60;;;13.00;99.90;;;;;;5014357;28;20766;-73
2022/09/16 08:08:04;;;;;;;6.40;5.27;;;13.10;99.90;;;;;;5013935;28;20237;-73
2022/09/16 08:10:29;;;;;;;10.37;5.67;;;13.10;99.90;;;;;;5014285;28;20655;-73
2022/09/16 08:12:55;;;;;;;7.67;6.30;;;13.30;99.90;;;;;;5014181;28;20248;-73
2022/09/16 08:15:21;;;;;;;7.60;5.67;;;13.30;99.90;;;;;;5014134;28;20233;-73
2022/09/16 08:17:47;;;;;;;5.40;4.90;;;13.40;99.90;;;;;;5014175;28;20224;-73
2022/09/16 08:20:13;;;;;;;9.73;5.70;;;13.50;99.90;;;;;;5013873;28;20254;-74
2022/09/16 08:22:38;;;;;;;8.87;5.50;;;13.50;99.90;;;;;;5013917;28;20422;-73
2022/09/16 08:25:04;;;;;;;9.27;6.20;;;13.60;99.90;;;;;;5013897;28;20179;-73
2022/09/16 08:27:30;;;;;;;12.50;5.70;;;13.60;99.90;;;;;;5014106;28;20641;-73
2022/09/16 08:29:55;;;;;;;5.60;5.00;;;13.60;99.90;;;;;;5013100;28;20555;-74
2022/09/16 08:32:21;;;;;;;9.63;6.20;;;13.70;99.90;;;;;;5013776;28;20214;-73
2022/09/16 08:34:47;;;;;;;6.50;5.67;;;13.70;99.90;;;;;;5013881;28;20589;-73
2022/09/16 08:37:13;;;;;;;7.03;6.20;;;13.70;99.90;;;;;;5013547;28;20169;-74
2022/09/16 08:39:39;;;;;;;9.23;6.43;;;13.80;99.90;;;;;;5013499;28;20914;-73
2022/09/16 08:42:38;;;;;;;7.00;6.07;;;13.80;99.90;;;;;;5013416;28;20195;-73
2022/09/16 08:45:25;;;;;;;7.37;6.67;;;13.70;99.90;;;;;;5013497;28;20409;-73
2022/09/16 08:48:06;;;;;;;8.43;7.30;;;13.90;99.90;;;;;;5013571;28;20420;-74
2022/09/16 08:50:41;;;;;;;7.23;6.53;;;13.90;99.90;;;;;;5013475;28;20508;-73
2022/09/16 08:53:18;;;;;;;8.07;5.47;;;14.00;99.90;;;;;;5013274;28;20408;-74
2022/09/16 08:55:47;;;;;;;10.00;5.80;;;14.00;99.90;;;;;;5013438;28;20417;-73
2022/09/16 08:58:19;;;;;;;5.50;5.00;;;14.00;99.90;;;;;;5012949;28;20405;-73
2022/09/16 09:00:48;;;;;;;12.80;4.73;;;14.10;99.90;;;;;;5013212;28;20406;-73
2022/09/16 09:03:24;;;;;;;6.03;5.43;;;14.10;99.90;;;;;;5013234;28;20409;-73
2022/09/16 09:05:55;;;;;;;7.47;5.00;;;14.20;99.90;;;;;;5013194;28;20409;-73
2022/09/16 09:08:53;;;;;;;5.97;4.70;;;14.20;99.90;;;;;;5013226;28;20456;-73
2022/09/16 09:11:33;;;;;;;5.10;4.70;;;14.30;99.90;;;;;;5013219;28;20429;-73
2022/09/16 09:14:21;;;;;;;5.60;4.50;;;14.50;99.90;;;;;;5013081;28;20401;-73
2022/09/16 09:17:15;;;;;;;6.83;4.73;;;14.50;99.90;;;;;;5013322;28;20748;-74
2022/09/16 09:20:04;;;;;;;7.07;5.47;;;14.40;99.90;;;;;;5013456;28;20504;-73
2022/09/16 09:22:58;;;;;;;4.47;4.10;;;14.40;99.90;;;;;;5013479;28;20430;-73
2022/09/16 09:25:38;;;;;;;7.23;5.00;;;14.40;99.90;;;;;;5013392;28;20410;-74
2022/09/16 09:28:43;;;;;;;5.80;4.53;;;14.50;99.90;;;;;;5013272;28;20412;-74
2022/09/16 09:31:24;;;;;;;8.03;5.20;;;14.40;99.90;;;;;;5013134;28;20856;-73
2022/09/16 09:34:28;;;;;;;9.17;4.77;;;14.40;99.90;;;;;;5012965;28;20930;-73
2022/09/16 09:37:05;;;;;;;5.10;4.60;;;14.40;99.90;;;;;;5013045;28;20484;-73
2022/09/16 09:39:46;;;;;;;4.40;4.10;;;14.40;99.90;;;;;;5012682;28;20420;-73
2022/09/16 09:42:20;;;;;;;6.10;4.37;;;14.40;99.90;;;;;;5011736;28;20444;-73
2022/09/16 09:44:55;;;;;;;10.17;4.10;;;14.30;99.90;;;;;;5012656;28;20409;-73
2022/09/16 09:47:26;;;;;;;9.93;5.30;;;14.40;99.90;;;;;;5012606;28;20421;-74
2022/09/16 09:50:00;;;;;;;5.20;4.70;;;14.50;99.90;;;;;;5012340;28;20496;-73
2022/09/16 09:52:41;;;;;;;6.10;4.30;;;14.60;99.90;;;;;;5012584;28;20868;-73
2022/09/16 09:55:21;;;;;;;4.87;4.20;;;14.70;99.90;;;;;;5012450;28;20406;-71
2022/09/16 09:58:04;;;;;;;4.10;3.50;;;14.70;99.90;;;;;;5012648;28;20456;-73
2022/09/16 10:00:30;;;;;;;5.93;3.93;;;14.70;99.90;;;;;;5012397;28;20413;-73
2022/09/16 10:03:15;;;;;;;4.27;3.43;;;14.70;99.90;;;;;;5012311;28;20429;-73
2022/09/16 10:05:41;;;;;;;6.30;4.30;;;14.70;99.90;;;;;;5012400;28;20181;-73
2022/09/16 10:08:28;;;;;;;7.50;4.07;;;14.70;99.90;;;;;;5012166;28;20922;-74
2022/09/16 10:10:58;;;;;;;5.03;4.03;;;14.60;99.90;;;;;;5012191;28;20504;-73
2022/09/16 10:13:25;;;;;;;4.13;3.93;;;14.50;99.90;;;;;;5012306;28;20410;-73
2022/09/16 10:16:06;;;;;;;9.50;4.87;;;14.60;99.90;;;;;;5012200;28;20405;-73
2022/09/16 10:18:33;;;;;;;7.83;3.87;;;14.60;99.90;;;;;;5012142;28;20927;-73
2022/09/16 10:21:01;;;;;;;5.30;3.80;;;14.50;99.90;;;;;;5013162;28;20516;-73
2022/09/16 10:23:26;;;;;;;7.00;4.50;;;14.60;99.90;;;;;;5013504;28;20459;-74
2022/09/16 10:26:21;;;;;;;7.67;4.17;;;14.50;99.90;;;;;;5012649;28;20410;-74
2022/09/16 10:29:13;;;;;;;6.50;4.20;;;14.40;99.90;;;;;;5011930;28;20256;-74
2022/09/16 10:31:41;;;;;;;4.70;4.30;;;14.40;99.90;;;;;;5012063;28;20449;-73
2022/09/16 10:34:22;;;;;;;5.87;3.60;;;14.40;99.90;;;;;;5010827;28;20480;-73
2022/09/16 10:37:03;;;;;;;7.10;3.70;;;14.50;99.90;;;;;;5012215;28;20412;-73
2022/09/16 10:39:30;;;;;;;4.00;3.60;;;14.50;99.90;;;;;;5012082;28;20948;-73
2022/09/16 10:41:55;;;;;;;4.63;4.23;;;14.60;99.90;;;;;;5011843;28;20445;-73
2022/09/16 10:44:30;;;;;;;4.50;4.10;;;14.70;99.90;;;;;;5011831;28;20441;-73
2022/09/16 10:47:07;;;;;;;3.63;3.20;;;14.70;99.90;;;;;;5012072;28;20231;-73
2022/09/16 10:49:38;;;;;;;4.17;3.20;;;14.70;99.90;;;;;;5011591;28;20493;-73
2022/09/16 10:52:13;;;;;;;7.60;3.67;;;14.80;99.90;;;;;;5012086;28;20794;-73
2022/09/16 10:54:38;;;;;;;4.00;3.70;;;14.90;99.90;;;;;;5014877;28;20413;-73
2022/09/16 10:57:23;;;;;;;6.40;4.30;;;15.00;99.90;;;;;;5015816;28;20468;-74
2022/09/16 11:00:16;;;;;;;6.63;3.13;;;15.10;99.90;;;;;;5015859;28;20209;-74
2022/09/16 11:03:06;;;;;;;8.63;3.10;;;15.10;99.90;;;;;;5016064;28;20856;-73
2022/09/16 11:06:11;;;;;;;3.60;2.73;;;15.00;99.90;;;;;;5015901;28;20441;-73
2022/09/16 11:08:41;;;;;;;6.77;3.43;;;15.00;99.90;;;;;;4994336;28;20471;-74
2022/09/16 11:11:40;;;;;;;3.47;3.27;;;14.90;99.90;;;;;;5015186;28;20445;-73
2022/09/16 11:14:15;;;;;;;6.53;3.30;;;14.90;99.90;;;;;;5015387;28;20445;-73
2022/09/16 11:17:25;;;;;;;5.70;2.93;;;14.90;99.90;;;;;;5015599;28;20937;-73
2022/09/16 11:20:22;;;;;;;5.53;3.73;;;14.80;99.90;;;;;;5004444;28;20413;-73
2022/09/16 11:22:56;;;;;;;3.20;2.90;;;14.80;99.90;;;;;;5015428;28;20429;-73
2022/09/16 11:25:40;;;;;;;4.00;2.60;;;14.70;99.90;;;;;;5015415;28;20427;-73
2022/09/16 11:28:52;;;;;;;4.30;3.13;;;14.60;99.90;;;;;;5015164;28;20777;-73
2022/09/16 11:31:54;;;;;;;6.80;3.47;;;14.60;99.90;;;;;;5014645;28;20449;-73
2022/09/16 11:34:48;;;;;;;4.30;2.93;;;14.60;99.90;;;;;;5015041;28;20405;-73
2022/09/16 11:37:25;;;;;;;3.47;2.73;;;14.60;99.90;;;;;;5014845;28;20437;-74
2022/09/16 11:40:06;;;;;;;4.60;3.20;;;14.60;99.90;;;;;;5014595;28;20499;-73
2022/09/16 11:42:52;;;;;;;5.50;3.40;;;14.70;99.90;;;;;;5014817;28;20468;-73
2022/09/16 11:45:18;;;;;;;5.53;3.23;;;14.80;99.90;;;;;;5014538;28;20417;-73
2022/09/16 11:47:55;;;;;;;5.30;2.83;;;14.90;99.90;;;;;;5014752;28;20475;-74
2022/09/16 11:50:56;;;;;;;3.57;2.43;;;15.10;99.90;;;;;;5014162;28;20202;-73
2022/09/16 11:53:26;;;;;;;10.40;3.00;;;15.30;99.90;;;;;;5014777;28;20818;-73
2022/09/16 11:56:13;;;;;;;3.27;2.50;;;15.50;99.90;;;;;;5014473;28;20937;-73
2022/09/16 11:58:56;;;;;;;4.83;2.10;;;15.60;99.90;;;;;;5014510;28;20980;-73
2022/09/16 12:01:43;;;;;;;4.30;2.10;;;15.90;99.90;;;;;;5014110;28;20434;-73
2022/09/16 12:04:14;;;;;;;4.20;1.90;;;16.00;99.90;;;;;;5014329;28;20409;-72
2022/09/16 12:07:05;;;;;;;5.27;2.10;;;16.10;99.90;;;;;;5013559;28;20409;-73
2022/09/16 12:09:54;;;;;;;3.13;1.40;;;16.50;99.90;;;;;;5006709;28;20499;-73
2022/09/16 12:12:27;;;;;;;3.57;1.70;;;16.80;99.90;;;;;;5015697;28;20429;-73
2022/09/16 12:14:58;;;;;;;1.50;1.37;;;16.90;99.90;;;;;;5015105;28;20484;-74
2022/09/16 12:17:29;;;;;;;4.83;1.97;;;16.90;99.90;;;;;;5014286;28;20417;-73
2022/09/16 12:20:02;;;;;;;6.57;1.60;;;17.10;99.90;;;;;;5013891;28;20413;-74
2022/09/16 12:22:34;;;;;;;3.93;1.70;;;17.20;99.90;;;;;;5013975;28;20434;-73
2022/09/16 12:25:17;;;;;;;2.80;1.13;;;17.50;99.90;;;;;;5013944;28;20413;-73
2022/09/16 12:28:02;;;;;;;4.30;1.60;;;17.30;99.90;;;;;;5014179;28;20425;-73
2022/09/16 12:30:44;;;;;;;5.00;1.97;;;16.90;99.90;;;;;;5013535;28;20500;-73
2022/09/16 12:33:14;;;;;;;3.03;1.37;;;16.60;99.90;;;;;;5013457;28;20491;-73
2022/09/16 12:36:14;;;;;;;5.70;1.70;;;16.50;99.90;;;;;;5013701;28;20416;-73
2022/09/16 12:38:39;;;;;;;2.13;1.93;;;16.40;99.90;;;;;;5005359;28;20438;-73
2022/09/16 12:41:50;;;;;;;3.87;2.17;;;16.30;99.90;;;;;;5013609;28;20433;-73
2022/09/16 12:44:48;;;;;;;1.70;1.40;;;16.20;99.90;;;;;;5009359;28;20187;-73
2022/09/16 12:47:35;;;;;;;2.00;1.40;;;16.10;99.90;;;;;;5013433;28;20420;-73
2022/09/16 12:50:43;;;;;;;3.40;1.83;;;16.20;99.90;;;;;;5013322;28;20515;-73
2022/09/16 12:53:48;;;;;;;3.50;1.60;;;16.10;99.90;;;;;;5013805;28;20422;-73
2022/09/16 12:56:39;;;;;;;1.77;1.57;;;16.30;99.90;;;;;;5012185;28;20409;-73
2022/09/16 12:59:11;;;;;;;5.10;1.43;;;16.40;99.90;;;;;;5013058;28;20571;-73
2022/09/16 13:01:47;;;;;;;1.30;1.20;;;16.50;99.90;;;;;;5013282;28;20789;-74
2022/09/16 13:04:32;;;;;;;1.50;1.40;;;16.50;99.90;;;;;;5013269;28;20410;-73
2022/09/16 13:07:01;;;;;;;3.10;1.10;;;16.50;99.90;;;;;;5013161;28;20445;-73
2022/09/16 13:09:32;;;;;;;2.10;1.73;;;16.40;99.90;;;;;;5012762;28;20460;-73
2022/09/16 13:12:01;;;;;;;5.80;1.37;;;16.40;99.90;;;;;;5013215;28;20460;-73
2022/09/16 13:14:31;;;;;;;3.87;2.00;;;16.50;99.90;;;;;;5012930;28;20473;-73
2022/09/16 13:16:58;;;;;;;6.87;1.93;;;16.50;99.90;;;;;;5012864;28;20414;-73
2022/09/16 13:19:41;;;;;;;2.40;1.67;;;16.60;99.90;;;;;;5012848;28;20414;-73
2022/09/16 13:22:20;;;;;;;3.27;1.80;;;16.70;99.90;;;;;;5012716;28;20449;-73
2022/09/16 13:25:08;;;;;;;2.37;1.53;;;16.80;99.90;;;;;;5013067;28;20945;-73
2022/09/16 13:27:37;;;;;;;2.97;1.70;;;16.80;99.90;;;;;;5012930;28;20405;-73
2022/09/16 13:30:11;;;;;;;3.03;1.83;;;16.80;99.90;;;;;;5012210;28;20457;-73
2022/09/16 13:32:42;;;;;;;4.43;2.00;;;16.80;99.90;;;;;;5012596;28;20477;-73
2022/09/16 13:35:31;;;;;;;5.43;1.60;;;16.60;99.90;;;;;;5012508;28;20409;-73
2022/09/16 13:37:57;;;;;;;4.27;1.70;;;16.50;99.90;;;;;;5012661;28;20429;-73
2022/09/16 13:40:27;;;;;;;2.07;1.87;;;16.60;99.90;;;;;;5012142;28;20481;-73
2022/09/16 13:43:07;;;;;;;4.20;1.87;;;16.60;99.90;;;;;;5012531;28;20434;-73
2022/09/16 13:45:45;;;;;;;2.80;1.80;;;16.90;99.90;;;;;;5012549;28;20441;-73
2022/09/16 13:48:20;;;;;;;4.80;2.23;;;17.00;99.90;;;;;;5012536;28;20422;-73
2022/09/16 13:50:52;;;;;;;1.53;1.43;;;17.00;99.90;;;;;;5012408;28;20413;-73
2022/09/16 13:53:25;;;;;;;2.07;1.87;;;17.10;99.90;;;;;;5012471;28;20421;-73
2022/09/16 13:55:55;;;;;;;2.40;2.10;;;17.00;99.90;;;;;;5012460;28;20417;-73
2022/09/16 13:58:33;;;;;;;1.83;1.73;;;16.90;99.90;;;;;;5012352;28;20905;-73
2022/09/16 14:01:21;;;;;;;2.50;1.97;;;17.00;99.90;;;;;;5012100;28;20928;-73
2022/09/16 14:03:56;;;;;;;1.80;1.70;;;16.90;99.90;;;;;;5012376;28;20497;-73
2022/09/16 14:06:37;;;;;;;2.30;1.90;;;16.80;99.90;;;;;;5012056;28;20994;-73
2022/09/16 14:09:11;;;;;;;5.60;1.80;;;16.80;99.90;;;;;;5012131;28;20985;-73
2022/09/16 14:11:51;;;;;;;2.60;1.33;;;17.00;99.90;;;;;;5012040;28;20417;-73
2022/09/16 14:14:21;;;;;;;4.90;2.00;;;17.00;99.90;;;;;;5012083;28;20471;-74
2022/09/16 14:16:47;;;;;;;5.67;1.50;;;17.20;99.90;;;;;;5012019;28;20410;-73
2022/09/16 14:19:27;;;;;;;2.03;1.23;;;17.30;99.90;;;;;;5011902;28;21049;-73
2022/09/16 14:22:05;;;;;;;2.93;1.47;;;17.30;99.90;;;;;;5011756;28;20464;-74
2022/09/16 14:24:41;;;;;;;4.40;1.43;;;17.30;99.90;;;;;;5012166;28;20413;-73
2022/09/16 14:27:25;;;;;;;2.40;2.20;;;17.30;99.90;;;;;;5011987;28;20416;-73
2022/09/16 14:29:54;;;;;;;1.60;1.50;;;17.30;99.90;;;;;;5011547;28;20501;-73
2022/09/16 14:32:20;;;;;;;7.03;1.90;;;17.10;99.90;;;;;;5011883;28;20871;-73
2022/09/16 14:34:49;;;;;;;2.10;1.40;;;16.90;99.90;;;;;;5012109;28;20460;-73
2022/09/16 14:37:15;;;;;;;7.83;1.90;;;16.80;99.90;;;;;;5011822;28;20245;-73
2022/09/16 14:39:42;;;;;;;11.83;3.03;;;16.90;99.90;;;;;;5011761;28;20414;-73
2022/09/16 14:42:16;;;;;;;2.50;1.30;;;16.90;99.90;;;;;;5012060;28;20444;-73
2022/09/16 14:44:50;;;;;;;3.73;1.37;;;16.80;99.90;;;;;;5012085;28;20420;-73
2022/09/16 14:47:22;;;;;;;3.47;1.60;;;16.60;99.90;;;;;;5011761;28;20405;-73
2022/09/16 14:49:51;;;;;;;1.40;1.10;;;16.50;99.90;;;;;;5011749;28;20999;-73